Time,TemperatureF,DewpointF,PressureIn,WindDirection,WindDirectionDegrees,WindSpeedMPH,WindSpeedGustMPH,Humidity,HourlyPrecipIn,Conditions,Clouds,dailyrainin,SoftwareType,DateUTC
2013-04-15 00:00:00,38.5,33.8,29.81,ESE,112,3.2,-999.0,83,-99.99,,,0.00,Acu-Link.com,2013-04-15 04:00:00,
2013-04-15 00:15:00,38.5,33.8,29.81,SSE,157,4.2,-999.0,83,-99.99,,,0.00,Acu-Link.com,2013-04-15 04:15:00,
2013-04-15 00:31:00,38.7,34.0,29.79,SSE,157,2.7,-999.0,83,-99.99,,,0.00,Acu-Link.com,2013-04-15 04:31:00,
2013-04-15 00:47:00,38.8,33.8,29.78,ESE,112,4.7,-999.0,82,-99.99,,,0.00,Acu-Link.com,2013-04-15 04:47:00,
2013-04-15 01:02:00,38.8,33.8,29.78,SSE,157,2.7,-999.0,82,-99.99,,,0.00,Acu-Link.com,2013-04-15 05:02:00,
2013-04-15 01:17:00,38.8,33.8,29.79,SE,135,3.2,-999.0,82,-99.99,,,0.00,Acu-Link.com,2013-04-15 05:17:00,
2013-04-15 01:32:00,39.2,34.2,29.79,ESE,112,2.2,-999.0,82,-99.99,,,0.00,Acu-Link.com,2013-04-15 05:32:00,
2013-04-15 01:47:00,39.4,34.4,29.78,ESE,112,2.2,-999.0,82,-99.99,,,0.00,Acu-Link.com,2013-04-15 05:47:00,
2013-04-15 02:03:00,40.1,34.4,29.78,ESE,112,4.2,-999.0,80,-99.99,,,0.00,Acu-Link.com,2013-04-15 06:03:00,
2013-04-15 02:18:00,40.1,34.4,29.78,SE,135,3.7,-999.0,80,-99.99,,,0.00,Acu-Link.com,2013-04-15 06:18:00,
2013-04-15 02:33:00,40.1,34.4,29.77,SE,135,3.2,-999.0,80,-99.99,,,0.00,Acu-Link.com,2013-04-15 06:33:00,
2013-04-15 02:48:00,40.5,34.8,29.77,SE,135,2.7,-999.0,80,-99.99,,,0.00,Acu-Link.com,2013-04-15 06:48:00,
2013-04-15 03:03:00,40.3,34.6,29.76,East,90,2.7,-999.0,80,-99.99,,,0.00,Acu-Link.com,2013-04-15 07:03:00,
2013-04-15 04:04:00,41.2,35.2,29.78,South,180,4.2,-999.0,79,-99.99,,,0.00,Acu-Link.com,2013-04-15 08:04:00,
2013-04-15 04:20:00,41.5,35.5,29.78,West,270,3.7,-999.0,79,-99.99,,,0.00,Acu-Link.com,2013-04-15 08:20:00,
2013-04-15 04:50:00,41.7,35.7,29.79,SE,135,2.7,-999.0,79,-99.99,,,0.00,Acu-Link.com,2013-04-15 08:50:00,
2013-04-15 05:06:00,42.1,36.1,29.80,SSE,157,2.2,-999.0,79,-99.99,,,0.00,Acu-Link.com,2013-04-15 09:06:00,
2013-04-15 05:21:00,43.0,36.6,29.82,South,180,2.7,-999.0,78,-99.99,,,0.00,Acu-Link.com,2013-04-15 09:21:00,
2013-04-15 06:06:00,42.4,36.7,29.81,SE,135,2.7,-999.0,80,-99.99,,,0.00,Acu-Link.com,2013-04-15 10:06:00,
2013-04-15 06:36:00,41.9,36.5,29.82,East,90,2.2,-999.0,81,-99.99,,,0.00,Acu-Link.com,2013-04-15 10:36:00,
2013-04-15 06:52:00,41.5,36.1,29.81,South,180,3.2,-999.0,81,-99.99,,,0.00,Acu-Link.com,2013-04-15 10:52:00,
2013-04-15 07:07:00,41.9,36.8,29.80,SE,135,3.7,-999.0,82,-99.99,,,0.00,Acu-Link.com,2013-04-15 11:07:00,
2013-04-15 07:22:00,42.8,37.1,29.81,ESE,112,2.7,-999.0,80,-99.99,,,0.00,Acu-Link.com,2013-04-15 11:22:00,
2013-04-15 07:38:00,43.5,37.7,29.81,South,180,2.7,-999.0,80,-99.99,,,0.00,Acu-Link.com,2013-04-15 11:38:00,
2013-04-15 08:08:00,46.0,38.5,29.82,SE,135,2.7,-999.0,75,-99.99,,,0.00,Acu-Link.com,2013-04-15 12:08:00,
2013-04-15 08:29:00,46.6,39.1,29.82,SSE,157,2.2,-999.0,75,-99.99,,,0.00,Acu-Link.com,2013-04-15 12:29:00,
2013-04-15 09:11:00,51.6,41.8,29.79,SSE,157,5.8,-999.0,69,-99.99,,,0.00,Acu-Link.com,2013-04-15 13:11:00,
2013-04-15 09:26:00,51.6,42.1,29.78,SW,225,3.7,-999.0,70,-99.99,,,0.00,Acu-Link.com,2013-04-15 13:26:00,
2013-04-15 09:41:00,52.5,43.4,29.80,WSW,247,3.7,-999.0,71,-99.99,,,0.00,Acu-Link.com,2013-04-15 13:41:00,
2013-04-15 10:11:00,54.9,44.9,29.80,ESE,112,4.2,-999.0,69,-99.99,,,0.00,Acu-Link.com,2013-04-15 14:11:00,
2013-04-15 10:27:00,58.6,46.9,29.79,West,270,4.2,-999.0,65,-99.99,,,0.00,Acu-Link.com,2013-04-15 14:27:00,
2013-04-15 10:57:00,59.2,47.4,29.80,SSE,157,6.8,-999.0,65,-99.99,,,0.00,Acu-Link.com,2013-04-15 14:57:00,
2013-04-15 11:12:00,58.6,47.7,29.78,SW,225,3.7,-999.0,67,-99.99,,,0.00,Acu-Link.com,2013-04-15 15:12:00,
2013-04-15 11:28:00,59.9,48.9,29.79,SSE,157,4.7,-999.0,67,-99.99,,,0.00,Acu-Link.com,2013-04-15 15:28:00,
2013-04-15 11:43:00,61.7,49.0,29.79,ENE,67,4.7,-999.0,63,-99.99,,,0.00,Acu-Link.com,2013-04-15 15:43:00,
2013-04-15 11:58:00,62.8,49.6,29.80,South,180,6.8,-999.0,62,-99.99,,,0.00,Acu-Link.com,2013-04-15 15:58:00,
2013-04-15 12:13:00,62.6,49.8,29.78,SE,135,7.3,-999.0,63,-99.99,,,0.00,Acu-Link.com,2013-04-15 16:13:00,
2013-04-15 12:28:00,62.6,49.8,29.77,SE,135,4.2,-999.0,63,-99.99,,,0.00,Acu-Link.com,2013-04-15 16:28:00,
2013-04-15 12:43:00,63.3,50.1,29.78,South,180,6.8,-999.0,62,-99.99,,,0.00,Acu-Link.com,2013-04-15 16:43:00,
2013-04-15 12:59:00,64.6,50.8,29.78,SSE,157,4.2,-999.0,61,-99.99,,,0.00,Acu-Link.com,2013-04-15 16:59:00,
2013-04-15 13:29:00,66.7,51.9,29.78,South,180,5.3,-999.0,59,-99.99,,,0.00,Acu-Link.com,2013-04-15 17:29:00,
2013-04-15 13:44:00,66.6,51.4,29.77,WSW,247,7.3,-999.0,58,-99.99,,,0.00,Acu-Link.com,2013-04-15 17:44:00,
2013-04-15 13:59:00,67.3,52.0,29.78,SSE,157,7.3,-999.0,58,-99.99,,,0.00,Acu-Link.com,2013-04-15 17:59:00,
2013-04-15 14:14:00,67.3,52.0,29.75,SSE,157,7.3,-999.0,58,-99.99,,,0.00,Acu-Link.com,2013-04-15 18:14:00,
2013-04-15 14:30:00,67.3,51.5,29.74,NE,45,6.3,-999.0,57,-99.99,,,0.00,Acu-Link.com,2013-04-15 18:30:00,
2013-04-15 14:45:00,68.0,52.2,29.75,ESE,112,4.7,-999.0,57,-99.99,,,0.00,Acu-Link.com,2013-04-15 18:45:00,
2013-04-15 15:00:00,68.0,52.2,29.76,SE,135,7.3,-999.0,57,-99.99,,,0.00,Acu-Link.com,2013-04-15 19:00:00,
2013-04-15 15:15:00,67.1,52.3,29.75,SSE,157,10.4,-999.0,59,-99.99,,,0.00,Acu-Link.com,2013-04-15 19:15:00,
2013-04-15 15:31:00,67.1,52.3,29.75,South,180,6.8,-999.0,59,-99.99,,,0.00,Acu-Link.com,2013-04-15 19:31:00,
2013-04-15 16:16:00,67.8,52.5,29.74,SSE,157,6.8,-999.0,58,-99.99,,,0.00,Acu-Link.com,2013-04-15 20:16:00,
2013-04-15 16:46:00,67.1,52.7,29.74,WSW,247,3.7,-999.0,60,-99.99,,,0.00,Acu-Link.com,2013-04-15 20:46:00,
2013-04-15 17:01:00,67.3,52.9,29.73,SSE,157,6.8,-999.0,60,-99.99,,,0.00,Acu-Link.com,2013-04-15 21:01:00,
2013-04-15 17:16:00,67.5,53.1,29.74,South,180,5.8,-999.0,60,-99.99,,,0.00,Acu-Link.com,2013-04-15 21:16:00,
2013-04-15 17:32:00,67.1,53.2,29.74,SSE,157,3.2,-999.0,61,-99.99,,,0.00,Acu-Link.com,2013-04-15 21:32:00,
2013-04-15 17:47:00,68.4,53.5,29.74,SSE,157,9.4,-999.0,59,-99.99,,,0.00,Acu-Link.com,2013-04-15 21:47:00,
2013-04-15 18:02:00,68.7,53.8,29.73,South,180,3.2,-999.0,59,-99.99,,,0.00,Acu-Link.com,2013-04-15 22:02:00,
2013-04-15 18:17:00,69.6,54.2,29.72,SSE,157,5.3,-999.0,58,-99.99,,,0.00,Acu-Link.com,2013-04-15 22:17:00,
2013-04-15 18:32:00,69.6,54.2,29.73,South,180,6.3,-999.0,58,-99.99,,,0.00,Acu-Link.com,2013-04-15 22:32:00,
2013-04-15 18:47:00,66.7,53.3,29.74,ESE,112,7.3,-999.0,62,-99.99,,,0.00,Acu-Link.com,2013-04-15 22:47:00,
2013-04-15 19:02:00,66.2,53.2,29.74,South,180,7.3,-999.0,63,-99.99,,,0.00,Acu-Link.com,2013-04-15 23:02:00,
2013-04-15 19:17:00,65.8,53.3,29.74,WSW,247,4.7,-999.0,64,-99.99,,,0.00,Acu-Link.com,2013-04-15 23:17:00,
2013-04-15 19:32:00,65.3,53.2,29.75,WSW,247,4.7,-999.0,65,-99.99,,,0.00,Acu-Link.com,2013-04-15 23:32:00,
2013-04-15 19:48:00,64.9,53.3,29.75,SSE,157,6.3,-999.0,66,-99.99,,,0.00,Acu-Link.com,2013-04-15 23:48:00,
2013-04-15 20:03:00,64.2,53.4,29.75,SSE,157,4.2,-999.0,68,-99.99,,,0.00,Acu-Link.com,2013-04-16 00:03:00,
2013-04-15 20:18:00,63.9,53.9,29.75,SSE,157,4.2,-999.0,70,-99.99,,,0.00,Acu-Link.com,2013-04-16 00:18:00,
2013-04-15 20:33:00,63.7,53.7,29.75,SSE,157,6.8,-999.0,70,-99.99,,,0.00,Acu-Link.com,2013-04-16 00:33:00,
2013-04-15 20:50:00,62.6,54.6,29.76,SSE,157,4.7,-999.0,75,-99.99,,,0.00,Acu-Link.com,2013-04-16 00:50:00,
2013-04-15 21:30:00,60.8,54.9,29.76,WSW,247,3.2,-999.0,81,-99.99,,,0.00,Acu-Link.com,2013-04-16 01:30:00,
2013-04-15 22:04:00,60.4,54.5,29.77,SSW,202,2.7,-999.0,81,-99.99,,,0.00,Acu-Link.com,2013-04-16 02:04:00,
2013-04-15 22:20:00,60.6,55.1,29.78,South,180,2.7,-999.0,82,-99.99,,,0.00,Acu-Link.com,2013-04-16 02:20:00,
2013-04-15 22:35:00,60.1,54.9,29.78,SSW,202,2.2,-999.0,83,-99.99,,,0.00,Acu-Link.com,2013-04-16 02:35:00,
2013-04-15 22:50:00,59.2,55.3,29.77,SSW,202,2.2,-999.0,87,-99.99,,,0.00,Acu-Link.com,2013-04-16 02:50:00,
2013-04-15 23:10:00,58.5,55.3,29.77,SSE,157,1.1,-999.0,89,-99.99,,,0.00,Acu-Link.com,2013-04-16 03:10:00,
2013-04-15 23:25:00,58.3,55.4,29.78,SW,225,2.2,-999.0,90,-99.99,,,0.00,Acu-Link.com,2013-04-16 03:25:00,
2013-04-15 23:41:00,57.6,55.6,29.76,SSW,202,0.0,-999.0,93,-99.99,,,0.02,Acu-Link.com,2013-04-16 03:41:00,